• Join FlightAware (Why Join?)
  • Login
  • US Flag 
11:12PM EDT


 

Airport Tracker/Info


-or-


 

Live Flight TrackerFlight Track Log ✈ UAL4695 ✈ 20-Mar-2014 ✈ KORD - CYXE

Flight Track Log - Related Links

Times and Time Zones

All times are in EDT time to prevent confusion due to time zone crossing. See the UAL4695 flight status page for this flight to view local times or setup timezone preferences in your user account.

Time Position Orientation Groundspeed Altitude Reporting Facility
EDT Latitude Longitude Course Direction KTS MPH feet Rate Location/Type
10:27PM 42.0167 -87.9500 345° North 175 201 2,600  Level Chicago TRACON
10:27PM 42.0500 -88.0000 312° West 208 239 4,100 2,340 Climbing Chicago TRACON
10:29PM 42.1369 -88.0347 344° North 247 284 8,000 2,400 Climbing Chicago Center
10:30PM 42.3500 -88.0276 270° West  Level FlightAware Approximate
10:30PM 42.2061 -88.0242 North 262 302 10,200  Level Chicago Center
10:31PM 42.4447 -88.0556 352° North  Level FlightAware Approximate
10:31PM 42.2836 -88.0139 North 277 319 12,400  Level Chicago Center
10:32PM 42.5396 -88.0915 345° North  Level FlightAware Approximate
10:32PM 42.3703 -88.0308 352° North 300 345 13,800  Level Chicago Center
10:33PM 42.4547 -88.0697 341° North 317 365 15,400 1,560 Climbing Chicago Center
10:34PM 42.5339 -88.1317 330° Northwest 326 375 17,000 1,560 Climbing Chicago Center
10:35PM 42.6161 -88.1908 332° Northwest 329 379 18,600 1,560 Climbing Chicago Center
10:36PM 42.6978 -88.2508 332° Northwest 332 382 20,200 1,740 Climbing Chicago Center
10:37PM 42.7958 -88.3236 331° Northwest 334 384 22,200 1,800 Climbing Chicago Center
10:38PM 42.8761 -88.3819 332° Northwest 329 379 24,000 1,680 Climbing Chicago Center
10:39PM 42.9522 -88.4397 331° Northwest 317 365 25,700 1,560 Climbing Chicago Center
10:40PM 43.0275 -88.4956 332° Northwest 311 358 27,200 1,320 Climbing Chicago Center
10:41PM 43.1028 -88.5506 332° Northwest 308 354 28,500 1,200 Climbing Chicago Center
10:42PM 43.1783 -88.6053 332° Northwest 306 352 29,700 1,140 Climbing Chicago Center
10:43PM 43.2528 -88.6617 331° Northwest 306 352 30,900 1,140 Climbing Chicago Center
10:44PM 43.3275 -88.7175 331° Northwest 306 352 32,100 1,140 Climbing Chicago Center
10:45PM 43.4017 -88.7733 331° Northwest 305 351 33,300 960 Climbing Chicago Center
10:46PM 43.4758 -88.8303 331° Northwest 304 350 34,100 780 Climbing Chicago Center
10:47PM 43.5503 -88.8864 331° Northwest 304 350 35,000 840 Climbing Chicago Center
10:48PM 43.6406 -88.9539 332° Northwest 306 352 35,900 480 Climbing Chicago Center
10:49PM 43.7161 -89.0119 331° Northwest 306 352 36,000  Climbing Chicago Center
10:50PM 43.7975 -89.0756 331° Northwest 324 373 36,000  Level Chicago Center
10:51PM 43.8833 -89.1403 331° Northwest 344 396 36,000  Level Chicago Center
10:52PM 43.9731 -89.2103 331° Northwest 364 419 36,000  Level Chicago Center
10:53PM 44.0653 -89.2825 331° Northwest 375 432 36,000  Level Chicago Center
10:54PM 44.1606 -89.3564 331° Northwest 385 443 36,000  Level Chicago Center
10:55PM 44.2550 -89.4286 331° Northwest 392 451 36,000  Level Chicago Center
10:56PM 44.3425 -89.5189 324° Northwest 390 449 36,000  Level Chicago Center
10:58PM 44.4300 -89.6094 324° Northwest 391 450 36,000  Level Chicago Center
10:59PM 44.5361 -89.7181 324° Northwest 392 451 36,000  Level Chicago Center
11:00PM 44.6253 -89.8103 324° Northwest 396 456 36,000  Level Chicago Center
11:01PM 44.7133 -89.9039 323° Northwest 396 456 36,000  Level Chicago Center
11:02PM 44.8008 -89.9975 323° Northwest 396 456 36,000  Level Chicago Center
11:03PM 44.8900 -90.0892 324° Northwest 396 456 36,000  Level Chicago Center
11:04PM 44.9789 -90.1814 324° Northwest 397 457 36,000  Level Chicago Center
11:05PM 45.0908 -90.3025 323° Northwest 397 457 36,000  Level Minneapolis Center
11:06PM 45.1792 -90.3978 323° Northwest 397 457 36,000  Level Minneapolis Center
11:07PM 45.2681 -90.4922 323° Northwest 397 457 36,000  Level Minneapolis Center
11:08PM 45.3564 -90.5878 323° Northwest 397 457 36,000  Level Minneapolis Center
11:09PM 45.4444 -90.6836 323° Northwest 397 457 36,000  Level Minneapolis Center
11:10PM 45.5511 -90.7994 323° Northwest 398 458 36,000  Level Minneapolis Center
11:11PM 45.6403 -90.8961 323° Northwest 399 459 36,000  Level Minneapolis Center
11:12PM 45.7294 -90.9956 322° Northwest 402 463 36,000  Level Minneapolis Center
11:13PM 45.8203 -91.0942 323° Northwest 405 466 36,000  Level Minneapolis Center
11:14PM 45.9103 -91.1936 322° Northwest 406 467 36,000  Level Minneapolis Center
11:15PM 46.0011 -91.2950 322° Northwest 410 472 36,000  Level Minneapolis Center
11:16PM 46.0911 -91.3958 322° Northwest 410 472 36,000  Level Minneapolis Center
11:17PM 46.1811 -91.4958 322° Northwest 409 471 36,000  Level Minneapolis Center
11:18PM 46.2761 -91.6050 322° Northwest 409 471 36,000  Level Minneapolis Center
11:19PM 46.3667 -91.7047 323° Northwest 409 471 36,000  Level Minneapolis Center
11:20PM 46.4464 -91.8203 315° West 409 471 36,000  Level Minneapolis Center
11:21PM 46.5100 -91.9547 305° West 407 468 36,000  Level Minneapolis Center
11:22PM 46.5778 -92.0869 307° West 407 468 36,000  Level Minneapolis Center
11:23PM 46.6436 -92.2194 306° West 407 468 36,000  Level Minneapolis Center
11:24PM 46.7100 -92.3531 306° West 407 468 36,000  Level Minneapolis Center
11:25PM 46.7889 -92.5153 305° West 407 468 36,000  Level Minneapolis Center
11:26PM 46.8542 -92.6503 305° West 407 468 36,000  Level Minneapolis Center
11:27PM 46.9197 -92.7839 306° West 407 468 36,000  Level Minneapolis Center
11:28PM 46.9850 -92.9197 305° West 407 468 36,000  Level Minneapolis Center
11:29PM 47.0503 -93.0547 305° West 407 468 36,000  Level Minneapolis Center
11:30PM 47.1158 -93.1911 305° West 407 468 36,000  Level Minneapolis Center
11:31PM 47.1831 -93.3289 306° West 407 468 36,000  Level Minneapolis Center
11:32PM 47.2481 -93.4675 305° West 407 468 36,000  Level Minneapolis Center
11:33PM 47.3131 -93.6064 305° West 407 468 36,000  Level Minneapolis Center
11:34PM 47.3783 -93.7450 305° West 407 468 36,000  Level Minneapolis Center
11:36PM 47.4422 -93.8836 304° West 407 468 36,000  Level Minneapolis Center
11:37PM 47.5058 -94.0217 304° West 407 468 36,000  Level Minneapolis Center
11:38PM 47.5703 -94.1619 304° West 409 471 36,000  Level Minneapolis Center
11:39PM 47.6339 -94.3003 304° West 409 471 36,000  Level Minneapolis Center
11:40PM 47.6967 -94.4392 304° West 408 470 36,000  Level Minneapolis Center
11:41PM 47.7600 -94.5789 304° West 408 470 36,000  Level Minneapolis Center
11:42PM 47.8367 -94.7478 304° West 409 471 36,000  Level Minneapolis Center
11:43PM 47.8992 -94.8883 304° West 409 471 36,000  Level Minneapolis Center
11:44PM 47.9622 -95.0294 304° West 409 471 36,000  Level Minneapolis Center
11:45PM 48.0261 -95.1711 304° West 409 471 36,000  Level Minneapolis Center
11:46PM 48.0892 -95.3125 304° West 410 472 36,000  Level Minneapolis Center
11:47PM 48.1522 -95.4564 303° West 410 472 36,000  Level Minneapolis Center
11:48PM 48.2100 -95.5864 304° West 411 473 36,000  Level Minneapolis Center
11:49PM 48.2719 -95.7311 303° West 411 473 36,000  Level Minneapolis Center
11:50PM 48.3489 -95.9039 304° West 412 474 36,000  Level Minneapolis Center
11:51PM 48.4097 -96.0486 302° West 412 474 36,000  Level Minneapolis Center
11:52PM 48.4711 -96.1917 303° West 412 474 36,000  Level Minneapolis Center
11:53PM 48.5331 -96.3381 303° West 412 474 36,000  Level Minneapolis Center
11:54PM 48.5953 -96.4831 303° West 412 474 36,000  Level Minneapolis Center
11:55PM 48.6569 -96.6289 303° West 412 474 36,000  Level Minneapolis Center
11:56PM 48.7183 -96.7750 303° West 412 474 36,000  Level Minneapolis Center
11:57PM 48.7667 -96.8833 304° West 410 472 36,000  Level Winnipeg Center
11:58PM 48.8333 -97.0500 301° West 410 472 36,000  Level Winnipeg Center
11:59PM 48.9000 -97.2125 302° West 412 474 36,000  Level Minneapolis Center
12:00AM 48.9603 -97.3608 302° West 412 474 36,000  Level Minneapolis Center
12:01AM 49.0000 -97.4833 296° West 410 472 36,000  Level Winnipeg Center
12:02AM 49.0500 -97.6500 295° West 420 483 36,000  Level Winnipeg Center
12:03AM 49.1167 -97.7833 307° West 420 483 36,000  Level Winnipeg Center
12:04AM 49.1833 -97.9333 304° West 420 483 36,000  Level Winnipeg Center
12:05AM 49.2333 -98.1000 295° West 420 483 36,000  Level Winnipeg Center
12:06AM 49.3000 -98.2500 304° West 420 483 36,000  Level Winnipeg Center
12:07AM 49.3667 -98.4000 304° West 420 483 36,000  Level Winnipeg Center
12:08AM 49.4167 -98.5667 295° West 420 483 36,000  Level Winnipeg Center
12:09AM 49.4833 -98.7167 304° West 420 483 36,000  Level Winnipeg Center
12:10AM 49.5500 -98.8667 304° West 420 483 36,000  Level Winnipeg Center
12:11AM 49.6167 -99.0333 302° West 420 483 36,000  Level Winnipeg Center
12:12AM 49.6667 -99.1833 297° West 420 483 36,000  Level Winnipeg Center
12:13AM 49.7167 -99.3500 295° West 420 483 36,000  Level Winnipeg Center
12:14AM 49.7833 -99.4833 308° West 420 483 36,000  Level Winnipeg Center
12:15AM 49.8500 -99.6667 299° West 420 483 36,000  Level Winnipeg Center
12:16AM 49.9000 -99.8000 300° West 420 483 36,000  Level Winnipeg Center
12:17AM 49.9500 -99.9833 293° West 420 483 36,000  Level Winnipeg Center
12:18AM 50.0167 -100.1167 308° West 420 483 36,000  Level Winnipeg Center
12:19AM 50.0833 -100.2833 302° West 420 483 36,000  Level Winnipeg Center
12:20AM 50.1500 -100.4333 305° West 430 495 36,000  Level Winnipeg Center
12:21AM 50.1833 -100.6000 287° West 430 495 36,000  Level Winnipeg Center
12:22AM 50.2500 -100.7833 300° West 420 483 36,000  Level Winnipeg Center
12:23AM 50.3167 -100.9167 308° West 420 483 36,000  Level Winnipeg Center
12:24AM 50.3667 -101.0833 295° West 420 483 36,000  Level Winnipeg Center
12:25AM 50.4167 -101.2500 295° West 420 483 36,000  Level Winnipeg Center
12:26AM 50.4833 -101.4167 302° West 420 483 36,000  Level Winnipeg Center
12:27AM 50.5333 -101.5833 295° West 430 495 36,000  Level Winnipeg Center
12:28AM 50.6000 -101.7333 305° West 420 483 36,000  Level Winnipeg Center
12:29AM 50.6500 -101.9000 295° West 420 483 36,000  Level Winnipeg Center
12:30AM 50.7000 -102.0667 295° West 420 483 36,000  Level Winnipeg Center
12:31AM 50.7667 -102.2333 302° West 420 483 36,000  Level Winnipeg Center
12:32AM 50.8167 -102.4000 295° West 420 483 36,000  Level Winnipeg Center
12:33AM 50.8667 -102.5667 295° West 420 483 36,000  Level Winnipeg Center
12:34AM 50.9167 -102.7333 296° West 420 483 36,000  Level Winnipeg Center
12:35AM 50.9833 -102.9000 302° West 420 483 36,000  Level Winnipeg Center
12:36AM 51.0333 -103.0667 296° West 420 483 36,000  Level Winnipeg Center
12:37AM 51.0833 -103.2333 296° West 420 483 36,000  Level Winnipeg Center
12:38AM 51.1500 -103.3667 309° West 420 483 36,000  Level Winnipeg Center
12:39AM 51.2000 -103.5667 292° West 420 483 36,000  Level Winnipeg Center
12:40AM 51.2500 -103.7167 298° West 420 483 36,000  Level Winnipeg Center
12:41AM 51.3167 -103.9000 300° West 420 483 36,000  Level Winnipeg Center
12:42AM 51.3500 -104.0500 290° West 420 483 36,000  Level Winnipeg Center
12:43AM 51.4167 -104.2500 298° West 430 495 36,000 -900 Level Winnipeg Center
12:44AM 51.4667 -104.3833 301° West 430 495 34,300 -1,920 Descending Winnipeg Center
12:45AM 51.5000 -104.5667 286° West 420 483 32,200 -2,400 Descending Winnipeg Center
12:46AM 51.5667 -104.7333 303° West 410 472 29,600 -2,640 Descending Winnipeg Center
12:47AM 51.6000 -104.9000 288° West 400 460 27,000 -2,400 Descending Winnipeg Center
12:48AM 51.6333 -105.0667 288° West 390 449 24,900 -2,100 Descending Winnipeg Center
12:49AM 51.6833 -105.2167 298° West 380 437 22,800 -2,280 Descending Winnipeg Center
12:50AM 51.7167 -105.3833 288° West 370 426 20,400 -2,340 Descending Winnipeg Center
12:51AM 51.7500 -105.5167 292° West 370 426 18,200 -2,160 Descending Winnipeg Center
12:52AM 51.7833 -105.6667 290° West 350 403 16,100 -2,580 Descending Winnipeg Center
12:53AM 51.8000 -105.8000 281° West 330 380 13,100 -2,400 Descending Winnipeg Center
12:54AM 51.8333 -105.9500 290° West 310 357 11,300 -1,200 Descending Winnipeg Center
12:55AM 51.8667 -106.0833 292° West 320 368 10,800 -600 Descending Winnipeg Center
12:56AM 51.9000 -106.2000 295° West 270 311 10,100 -960 Descending Winnipeg Center
12:57AM 51.9000 -106.3167 270° West 240 276 8,900 -1,680 Descending Winnipeg Center
12:58AM 51.9333 -106.4000 303° West 240 276 6,800 -1,980 Descending Winnipeg Center
12:59AM 51.9500 -106.5167 283° West 240 276 5,000 -1,740 Descending Winnipeg Center
01:00AM 52.0000 -106.5833 321° Northwest 220 253 3,400 -1,080 Descending Winnipeg Center
01:01AM 52.0500 -106.6167 338° Northwest 170 196 2,900 -300 Descending Winnipeg Center
01:02AM 52.0833 -106.6500 328° Northwest 160 184 2,900 -240 Level Winnipeg Center
01:03AM 52.1000 -106.6833 309° West 130 150 2,500 -540 Descending Winnipeg Center
01:04AM 52.1333 -106.7167 328° Northwest 120 138 1,900 -600 Descending Winnipeg Center